Time,TemperatureF,DewpointF,PressureIn,WindDirection,WindDirectionDegrees,WindSpeedMPH,WindSpeedGustMPH,Humidity,HourlyPrecipIn,Conditions,Clouds,dailyrainin,SoftwareType,DateUTC
2013-05-27 00:57:00,57.9,44.1,30.16,SSW,202,9.2,9.2,60,0.00,CLR,,0.00,WeatherDisplay:10.37,2013-05-26 23:57:00,
2013-05-27 06:42:00,57.9,44.1,30.16,SSW,202,9.2,9.2,60,0.00,CLR,,0.00,WeatherDisplay:10.37,2013-05-27 05:42:00,
2013-05-27 06:59:00,57.9,44.1,30.16,SSW,202,9.2,9.2,60,0.00,CLR,,0.00,WeatherDisplay:10.37,2013-05-27 05:59:00,
2013-05-27 08:02:00,57.9,44.1,30.16,SSW,202,9.2,9.2,60,0.00,CLR,,0.00,WeatherDisplay:10.37,2013-05-27 07:02:00,
2013-05-27 11:07:00,51.1,47.7,29.44,SE,134,9.2,9.6,88,0.00,CLR,,0.00,WeatherDisplay:10.37,2013-05-27 10:07:00,
2013-05-27 11:12:00,51.2,47.8,29.43,SE,140,12.7,12.7,88,0.00,CLR,,0.00,WeatherDisplay:10.37,2013-05-27 10:12:00,
2013-05-27 11:17:00,51.2,47.8,29.43,SE,140,12.7,12.7,88,0.00,CLR,,0.00,WeatherDisplay:10.37,2013-05-27 10:17:00,
2013-05-27 11:22:00,51.2,47.8,29.43,SE,140,12.7,12.7,88,0.00,CLR,,0.00,WeatherDisplay:10.37,2013-05-27 10:22:00,
2013-05-27 11:27:00,50.8,47.7,29.43,SE,132,12.7,12.7,89,0.00,CLR,,0.00,WeatherDisplay:10.37,2013-05-27 10:27:00,
2013-05-27 11:32:00,50.4,47.9,29.43,SE,136,11.5,11.5,91,0.00,CLR,,0.00,WeatherDisplay:10.37,2013-05-27 10:32:00,
2013-05-27 11:37:00,50.3,48.1,29.43,East,101,10.0,10.0,92,0.00,CLR,,0.00,WeatherDisplay:10.37,2013-05-27 10:37:00,
2013-05-27 11:42:00,50.2,48.0,29.42,East,99,9.2,9.2,92,0.00,CLR,,0.00,WeatherDisplay:10.37,2013-05-27 10:42:00,
2013-05-27 11:47:00,50.2,48.0,29.42,ESE,105,11.5,11.5,92,0.00,CLR,,0.00,WeatherDisplay:10.37,2013-05-27 10:47:00,
2013-05-27 11:52:00,50.3,48.1,29.42,ESE,112,11.5,11.5,92,0.00,CLR,,0.00,WeatherDisplay:10.37,2013-05-27 10:52:00,
2013-05-27 11:57:00,50.3,48.1,29.42,East,100,10.4,10.4,92,0.00,CLR,,0.00,WeatherDisplay:10.37,2013-05-27 10:57:00,
2013-05-27 12:02:00,50.4,48.2,29.42,SE,124,10.4,10.4,92,0.00,CLR,,0.00,WeatherDisplay:10.37,2013-05-27 11:02:00,
2013-05-27 12:07:00,50.6,48.4,29.42,ESE,116,11.5,11.5,92,0.00,CLR,,0.00,WeatherDisplay:10.37,2013-05-27 11:07:00,
2013-05-27 12:12:00,50.8,48.3,29.42,SE,130,9.2,9.2,91,0.00,CLR,,0.00,WeatherDisplay:10.37,2013-05-27 11:12:00,
2013-05-27 12:17:00,51.0,48.2,29.42,SE,124,8.1,8.1,90,0.00,CLR,,0.00,WeatherDisplay:10.37,2013-05-27 11:17:00,
2013-05-27 12:22:00,51.1,48.3,29.42,SE,138,10.0,10.0,90,0.00,CLR,,0.00,WeatherDisplay:10.37,2013-05-27 11:22:00,
2013-05-27 12:27:00,51.2,48.4,29.42,SE,124,11.5,11.5,90,0.00,CLR,,0.00,WeatherDisplay:10.37,2013-05-27 11:27:00,
2013-05-27 12:32:00,51.2,48.1,29.42,SSE,164,11.5,11.5,89,0.00,CLR,,0.00,WeatherDisplay:10.37,2013-05-27 11:32:00,
2013-05-27 12:37:00,51.2,48.1,29.42,SSE,165,11.5,11.5,89,0.00,CLR,,0.00,WeatherDisplay:10.37,2013-05-27 11:37:00,
2013-05-27 12:42:00,51.1,48.0,29.42,SE,127,12.7,12.7,89,0.00,CLR,,0.00,WeatherDisplay:10.37,2013-05-27 11:42:00,
2013-05-27 12:47:00,50.9,48.1,29.42,ESE,116,13.8,13.8,90,0.00,CLR,,0.00,WeatherDisplay:10.37,2013-05-27 11:47:00,
2013-05-27 12:52:00,50.9,48.1,29.42,ESE,117,10.4,10.4,90,0.00,CLR,,0.00,WeatherDisplay:10.37,2013-05-27 11:52:00,
2013-05-27 12:57:00,50.6,47.5,29.42,SE,138,11.5,11.5,89,0.00,CLR,,0.00,WeatherDisplay:10.37,2013-05-27 11:57:00,
2013-05-27 13:02:00,50.4,47.3,29.42,SE,128,11.5,11.5,89,0.00,CLR,,0.00,WeatherDisplay:10.37,2013-05-27 12:02:00,
2013-05-27 13:07:00,50.2,47.4,29.42,ESE,110,9.2,9.2,90,0.00,CLR,,0.00,WeatherDisplay:10.37,2013-05-27 12:07:00,
2013-05-27 13:12:00,50.1,47.3,29.42,SSE,147,9.0,9.0,90,0.00,CLR,,0.00,WeatherDisplay:10.37,2013-05-27 12:12:00,
2013-05-27 13:17:00,50.2,47.4,29.42,SE,132,5.8,6.4,90,0.00,CLR,,0.00,WeatherDisplay:10.37,2013-05-27 12:17:00,
2013-05-27 13:22:00,50.2,47.4,29.42,SSW,197,8.1,8.1,90,0.00,CLR,,0.00,WeatherDisplay:10.37,2013-05-27 12:22:00,
2013-05-27 13:27:00,50.2,47.1,29.42,SE,136,8.1,8.1,89,0.00,CLR,,0.00,WeatherDisplay:10.37,2013-05-27 12:27:00,
2013-05-27 13:32:00,50.1,46.7,29.42,SE,128,8.1,8.1,88,0.00,CLR,,0.00,WeatherDisplay:10.37,2013-05-27 12:32:00,
2013-05-27 13:37:00,50.2,46.8,29.42,SSE,150,6.9,6.9,88,0.00,CLR,,0.00,WeatherDisplay:10.37,2013-05-27 12:37:00,
2013-05-27 13:42:00,50.1,46.7,29.42,ESE,115,3.5,3.5,88,0.00,CLR,,0.00,WeatherDisplay:10.37,2013-05-27 12:42:00,
2013-05-27 13:47:00,50.1,46.4,29.42,ESE,120,5.0,5.0,87,0.00,CLR,,0.00,WeatherDisplay:10.37,2013-05-27 12:47:00,
2013-05-27 13:52:00,50.2,46.5,29.42,ESE,116,5.8,5.8,87,0.00,CLR,,0.00,WeatherDisplay:10.37,2013-05-27 12:52:00,
2013-05-27 13:57:00,50.3,46.6,29.42,SSE,153,8.1,8.1,87,0.00,CLR,,0.00,WeatherDisplay:10.37,2013-05-27 12:57:00,
2013-05-27 14:02:00,50.4,46.4,29.42,SE,128,8.1,8.1,86,0.00,CLR,,0.00,WeatherDisplay:10.37,2013-05-27 13:02:00,
2013-05-27 14:07:00,50.6,46.6,29.42,SE,127,6.9,6.9,86,0.00,CLR,,0.00,WeatherDisplay:10.37,2013-05-27 13:07:00,
2013-05-27 14:12:00,50.9,46.9,29.42,South,188,4.6,4.6,86,0.00,CLR,,0.00,WeatherDisplay:10.37,2013-05-27 13:12:00,
2013-05-27 14:17:00,50.9,46.9,29.42,SE,136,6.9,6.9,86,0.00,CLR,,0.00,WeatherDisplay:10.37,2013-05-27 13:17:00,
2013-05-27 14:22:00,51.0,46.6,29.42,ESE,119,4.0,4.0,85,0.00,CLR,,0.00,WeatherDisplay:10.37,2013-05-27 13:22:00,
2013-05-27 14:27:00,51.2,46.8,29.42,South,181,8.1,8.1,85,0.00,CLR,,0.00,WeatherDisplay:10.37,2013-05-27 13:27:00,
2013-05-27 14:32:00,51.4,46.7,29.43,SE,142,8.1,8.1,84,0.00,CLR,,0.00,WeatherDisplay:10.37,2013-05-27 13:32:00,
2013-05-27 14:37:00,51.6,46.9,29.43,SW,215,3.5,3.5,84,0.00,CLR,,0.00,WeatherDisplay:10.37,2013-05-27 13:37:00,
2013-05-27 14:42:00,51.5,46.2,29.42,South,174,8.1,8.1,82,0.00,CLR,,0.00,WeatherDisplay:10.37,2013-05-27 13:42:00,
2013-05-27 14:47:00,51.6,46.6,29.42,SSW,198,11.5,11.5,83,0.00,CLR,,0.00,WeatherDisplay:10.37,2013-05-27 13:47:00,
2013-05-27 14:52:00,51.8,46.8,29.42,SE,136,4.6,4.6,83,0.00,CLR,,0.00,WeatherDisplay:10.37,2013-05-27 13:52:00,
2013-05-27 14:57:00,52.1,46.8,29.42,South,183,12.0,12.0,82,0.00,CLR,,0.00,WeatherDisplay:10.37,2013-05-27 13:57:00,
2013-05-27 15:02:00,52.5,47.2,29.42,SE,140,11.5,11.5,82,0.00,CLR,,0.00,WeatherDisplay:10.37,2013-05-27 14:02:00,
2013-05-27 15:07:00,52.6,46.9,29.42,SSE,167,10.4,10.4,81,0.00,CLR,,0.00,WeatherDisplay:10.37,2013-05-27 14:07:00,
2013-05-27 15:12:00,52.9,47.2,29.42,SE,146,9.0,9.0,81,0.00,CLR,,0.00,WeatherDisplay:10.37,2013-05-27 14:12:00,
2013-05-27 15:17:00,53.1,46.8,29.42,SSW,212,13.8,13.8,79,0.00,CLR,,0.00,WeatherDisplay:10.37,2013-05-27 14:17:00,
2013-05-27 15:22:00,53.2,47.2,29.42,SSW,195,11.0,11.0,80,0.00,CLR,,0.00,WeatherDisplay:10.37,2013-05-27 14:22:00,
2013-05-27 15:27:00,53.3,47.0,29.42,South,179,12.7,12.7,79,0.00,CLR,,0.00,WeatherDisplay:10.37,2013-05-27 14:27:00,
2013-05-27 15:32:00,53.6,47.6,29.42,SSW,205,9.2,9.2,80,0.00,CLR,,0.00,WeatherDisplay:10.37,2013-05-27 14:32:00,
2013-05-27 15:37:00,53.8,47.8,29.42,SSW,199,10.4,10.4,80,0.00,CLR,,0.00,WeatherDisplay:10.37,2013-05-27 14:37:00,
2013-05-27 15:42:00,53.9,47.2,29.42,SW,228,12.7,12.7,78,0.00,CLR,,0.00,WeatherDisplay:10.37,2013-05-27 14:42:00,
2013-05-27 15:47:00,53.9,46.5,29.42,SSW,198,17.3,17.3,76,0.00,CLR,,0.00,WeatherDisplay:10.37,2013-05-27 14:47:00,
2013-05-27 15:52:00,54.1,47.4,29.42,South,185,11.5,11.5,78,0.00,CLR,,0.00,WeatherDisplay:10.37,2013-05-27 14:52:00,
2013-05-27 15:57:00,54.3,46.2,29.42,SSW,193,16.1,16.1,74,0.00,CLR,,0.00,WeatherDisplay:10.37,2013-05-27 14:57:00,
2013-05-27 16:02:00,54.2,45.0,29.42,SW,230,14.0,14.0,71,0.00,CLR,,0.00,WeatherDisplay:10.37,2013-05-27 15:02:00,
2013-05-27 16:07:00,54.2,45.0,29.42,SSW,195,16.1,16.1,71,0.00,CLR,,0.00,WeatherDisplay:10.37,2013-05-27 15:07:00,
2013-05-27 16:12:00,54.2,45.4,29.42,South,183,15.0,15.0,72,0.00,CLR,,0.00,WeatherDisplay:10.37,2013-05-27 15:12:00,
2013-05-27 16:17:00,54.2,46.1,29.42,SW,222,15.0,15.0,74,0.00,CLR,,0.00,WeatherDisplay:10.37,2013-05-27 15:17:00,
2013-05-27 16:22:00,54.2,46.1,29.42,SSW,213,15.0,15.0,74,0.00,CLR,,0.00,WeatherDisplay:10.37,2013-05-27 15:22:00,
2013-05-27 16:27:00,54.2,46.1,29.42,SW,227,13.8,13.8,74,0.00,CLR,,0.00,WeatherDisplay:10.37,2013-05-27 15:27:00,
2013-05-27 16:32:00,54.3,45.5,29.42,SW,231,12.7,12.7,72,0.00,CLR,,0.00,WeatherDisplay:10.37,2013-05-27 15:32:00,
2013-05-27 16:37:00,54.3,45.8,29.42,South,171,12.7,12.7,73,0.00,CLR,,0.00,WeatherDisplay:10.37,2013-05-27 15:37:00,
2013-05-27 16:42:00,54.6,45.4,29.42,ESE,113,13.8,13.8,71,0.00,CLR,,0.00,WeatherDisplay:10.37,2013-05-27 15:42:00,
2013-05-27 16:47:00,54.7,46.2,29.42,SE,133,9.2,9.2,73,0.00,CLR,,0.00,WeatherDisplay:10.37,2013-05-27 15:47:00,
2013-05-27 16:52:00,54.8,45.9,29.42,South,190,9.2,9.2,72,0.00,CLR,,0.00,WeatherDisplay:10.37,2013-05-27 15:52:00,
2013-05-27 16:57:00,54.7,45.1,29.42,SSW,208,10.4,10.4,70,0.00,CLR,,0.00,WeatherDisplay:10.37,2013-05-27 15:57:00,
2013-05-27 17:02:00,54.6,45.4,29.42,SSW,201,12.7,12.7,71,0.00,CLR,,0.00,WeatherDisplay:10.37,2013-05-27 16:02:00,
2013-05-27 17:07:00,54.6,46.1,29.42,SW,232,12.0,12.0,73,0.00,CLR,,0.00,WeatherDisplay:10.37,2013-05-27 16:07:00,
2013-05-27 17:12:00,53.9,46.9,29.42,SW,235,10.4,10.4,77,0.00,CLR,,0.00,WeatherDisplay:10.37,2013-05-27 16:12:00,
2013-05-27 17:17:00,53.6,46.6,29.42,WSW,257,10.4,10.4,77,0.00,CLR,,0.00,WeatherDisplay:10.37,2013-05-27 16:17:00,
2013-05-27 17:22:00,53.5,46.8,29.42,SW,230,11.5,11.5,78,0.00,CLR,,0.00,WeatherDisplay:10.37,2013-05-27 16:22:00,
2013-05-27 17:27:00,53.4,46.7,29.42,SW,232,13.8,13.8,78,0.00,CLR,,0.00,WeatherDisplay:10.37,2013-05-27 16:27:00,
2013-05-27 17:32:00,53.3,46.6,29.42,SW,233,12.7,12.7,78,0.00,CLR,,0.00,WeatherDisplay:10.37,2013-05-27 16:32:00,
2013-05-27 17:37:00,53.4,46.7,29.42,West,264,12.7,12.7,78,0.00,CLR,,0.00,WeatherDisplay:10.37,2013-05-27 16:37:00,
2013-05-27 17:42:00,53.4,46.7,29.42,SW,225,15.0,15.0,78,0.00,CLR,,0.00,WeatherDisplay:10.37,2013-05-27 16:42:00,
2013-05-27 17:47:00,53.4,46.7,29.42,WSW,245,11.5,11.5,78,0.00,CLR,,0.00,WeatherDisplay:10.37,2013-05-27 16:47:00,
2013-05-27 17:52:00,53.6,46.6,29.42,WSW,250,11.5,11.5,77,0.00,CLR,,0.00,WeatherDisplay:10.37,2013-05-27 16:52:00,
2013-05-27 17:57:00,53.8,46.8,29.42,SW,228,11.5,11.5,77,0.00,CLR,,0.00,WeatherDisplay:10.37,2013-05-27 16:57:00,
2013-05-27 18:02:00,53.8,47.1,29.42,SW,232,11.5,11.5,78,0.00,CLR,,0.00,WeatherDisplay:10.37,2013-05-27 17:02:00,
2013-05-27 18:07:00,53.6,46.9,29.42,SW,228,10.4,10.4,78,0.00,CLR,,0.00,WeatherDisplay:10.37,2013-05-27 17:07:00,
2013-05-27 18:12:00,53.4,46.4,29.42,WSW,249,17.3,17.3,77,0.00,CLR,,0.00,WeatherDisplay:10.37,2013-05-27 17:12:00,
2013-05-27 18:17:00,53.2,46.2,29.42,SSW,193,18.0,18.0,77,0.00,CLR,,0.00,WeatherDisplay:10.37,2013-05-27 17:17:00,
2013-05-27 18:22:00,52.9,46.2,29.42,South,171,19.6,19.6,78,0.00,CLR,,0.00,WeatherDisplay:10.37,2013-05-27 17:22:00,
2013-05-27 18:27:00,52.8,46.1,29.42,WSW,241,11.5,11.5,78,0.00,CLR,,0.00,WeatherDisplay:10.37,2013-05-27 17:27:00,
2013-05-27 18:32:00,52.8,46.5,29.42,South,171,9.2,9.2,79,0.00,CLR,,0.00,WeatherDisplay:10.37,2013-05-27 17:32:00,
2013-05-27 18:37:00,52.8,46.5,29.42,WSW,249,11.5,11.5,79,0.00,CLR,,0.00,WeatherDisplay:10.37,2013-05-27 17:37:00,
2013-05-27 18:42:00,52.8,46.8,29.43,WSW,238,10.0,10.0,80,0.00,CLR,,0.00,WeatherDisplay:10.37,2013-05-27 17:42:00,
2013-05-27 18:47:00,52.6,45.9,29.43,SW,231,13.0,13.0,78,0.00,CLR,,0.00,WeatherDisplay:10.37,2013-05-27 17:47:00,
2013-05-27 18:52:00,52.5,46.2,29.43,SSW,193,12.0,12.0,79,0.00,CLR,,0.00,WeatherDisplay:10.37,2013-05-27 17:52:00,
2013-05-27 18:57:00,52.4,46.1,29.43,SSW,211,10.4,10.4,79,0.00,CLR,,0.00,WeatherDisplay:10.37,2013-05-27 17:57:00,
2013-05-27 19:02:00,52.4,46.1,29.43,SW,231,13.8,13.8,79,0.00,CLR,,0.00,WeatherDisplay:10.37,2013-05-27 18:02:00,
2013-05-27 19:07:00,52.2,45.9,29.43,SW,220,11.5,11.5,79,0.00,CLR,,0.00,WeatherDisplay:10.37,2013-05-27 18:07:00,
2013-05-27 19:12:00,51.9,45.6,29.43,SW,236,9.2,9.2,79,0.00,CLR,,0.00,WeatherDisplay:10.37,2013-05-27 18:12:00,
2013-05-27 19:17:00,52.0,45.7,29.43,WSW,238,8.1,8.1,79,0.00,CLR,,0.00,WeatherDisplay:10.37,2013-05-27 18:17:00,
2013-05-27 19:22:00,52.0,45.7,29.44,SW,216,6.9,6.9,79,0.00,CLR,,0.00,WeatherDisplay:10.37,2013-05-27 18:22:00,
2013-05-27 19:27:00,52.0,45.7,29.43,SW,219,11.5,11.5,79,0.00,CLR,,0.00,WeatherDisplay:10.37,2013-05-27 18:27:00,
2013-05-27 19:32:00,52.1,45.8,29.44,SW,228,8.1,8.1,79,0.00,CLR,,0.00,WeatherDisplay:10.37,2013-05-27 18:32:00,
2013-05-27 19:37:00,52.2,45.5,29.44,SW,225,8.0,8.0,78,0.00,CLR,,0.00,WeatherDisplay:10.37,2013-05-27 18:37:00,
2013-05-27 19:42:00,52.3,45.3,29.44,WSW,247,4.6,4.6,77,0.00,CLR,,0.00,WeatherDisplay:10.37,2013-05-27 18:42:00,
2013-05-27 19:47:00,52.9,45.2,29.44,South,188,3.5,3.5,75,0.00,CLR,,0.00,WeatherDisplay:10.37,2013-05-27 18:47:00,
2013-05-27 19:52:00,53.3,45.6,29.44,SW,221,6.0,6.0,75,0.00,CLR,,0.00,WeatherDisplay:10.37,2013-05-27 18:52:00,
2013-05-27 19:57:00,53.3,46.3,29.44,WSW,242,8.1,8.1,77,0.00,CLR,,0.00,WeatherDisplay:10.37,2013-05-27 18:57:00,
2013-05-27 20:02:00,52.7,46.0,29.44,SW,235,8.0,8.0,78,0.00,CLR,,0.00,WeatherDisplay:10.37,2013-05-27 19:02:00,
2013-05-27 20:07:00,52.4,46.1,29.44,SSW,195,9.2,9.2,79,0.00,CLR,,0.00,WeatherDisplay:10.37,2013-05-27 19:07:00,
2013-05-27 20:12:00,52.4,46.1,29.45,SSW,194,11.5,11.5,79,0.00,CLR,,0.00,WeatherDisplay:10.37,2013-05-27 19:12:00,
2013-05-27 20:17:00,52.5,46.2,29.44,South,176,18.4,18.4,79,0.00,CLR,,0.00,WeatherDisplay:10.37,2013-05-27 19:17:00,
2013-05-27 20:22:00,53.0,46.7,29.45,SW,234,10.4,10.4,79,0.00,CLR,,0.00,WeatherDisplay:10.37,2013-05-27 19:22:00,
2013-05-27 20:27:00,52.9,46.9,29.45,SSW,195,12.7,12.7,80,0.00,CLR,,0.00,WeatherDisplay:10.37,2013-05-27 19:27:00,
2013-05-27 20:32:00,52.7,47.0,29.45,SSW,207,15.0,15.0,81,0.00,CLR,,0.00,WeatherDisplay:10.37,2013-05-27 19:32:00,
2013-05-27 20:37:00,52.6,46.9,29.45,SW,224,11.5,11.5,81,0.00,CLR,,0.00,WeatherDisplay:10.37,2013-05-27 19:37:00,
2013-05-27 20:42:00,52.5,47.2,29.45,South,173,5.8,5.8,82,0.00,CLR,,0.00,WeatherDisplay:10.37,2013-05-27 19:42:00,
2013-05-27 20:47:00,52.7,47.4,29.45,SSW,198,11.5,11.5,82,0.00,CLR,,0.00,WeatherDisplay:10.37,2013-05-27 19:47:00,
2013-05-27 20:52:00,52.5,46.8,29.45,SE,141,11.0,11.0,81,0.00,CLR,,0.00,WeatherDisplay:10.37,2013-05-27 19:52:00,
2013-05-27 20:57:00,52.3,47.0,29.45,South,176,8.1,8.1,82,0.00,CLR,,0.00,WeatherDisplay:10.37,2013-05-27 19:57:00,
2013-05-27 21:02:00,52.1,46.8,29.46,ESE,122,8.0,8.0,82,0.00,CLR,,0.00,WeatherDisplay:10.37,2013-05-27 20:02:00,
2013-05-27 21:07:00,51.9,46.6,29.46,South,191,8.1,8.1,82,0.00,CLR,,0.00,WeatherDisplay:10.37,2013-05-27 20:07:00,
2013-05-27 21:12:00,51.8,46.5,29.46,SSE,150,11.5,11.5,82,0.00,CLR,,0.00,WeatherDisplay:10.37,2013-05-27 20:12:00,
2013-05-27 21:17:00,51.7,46.1,29.47,SE,140,12.0,12.0,81,0.00,CLR,,0.00,WeatherDisplay:10.37,2013-05-27 20:17:00,
2013-05-27 21:22:00,51.6,46.3,29.47,ESE,108,8.1,8.1,82,0.00,CLR,,0.00,WeatherDisplay:10.37,2013-05-27 20:22:00,
2013-05-27 21:27:00,51.5,46.5,29.47,SE,143,6.9,6.9,83,0.00,CLR,,0.00,WeatherDisplay:10.37,2013-05-27 20:27:00,
2013-05-27 21:32:00,51.4,46.7,29.47,ESE,110,10.0,10.0,84,0.00,CLR,,0.00,WeatherDisplay:10.37,2013-05-27 20:32:00,
2013-05-27 21:37:00,51.3,46.3,29.47,East,100,11.0,11.0,83,0.00,CLR,,0.00,WeatherDisplay:10.37,2013-05-27 20:37:00,
2013-05-27 21:42:00,51.4,46.7,29.48,ESE,103,6.9,6.9,84,0.00,CLR,,0.00,WeatherDisplay:10.37,2013-05-27 20:42:00,
2013-05-27 21:47:00,51.3,46.6,29.48,East,100,8.1,8.1,84,0.00,CLR,,0.00,WeatherDisplay:10.37,2013-05-27 20:47:00,
2013-05-27 21:52:00,51.3,46.3,29.48,ESE,105,6.9,6.9,83,0.00,CLR,,0.00,WeatherDisplay:10.37,2013-05-27 20:52:00,
2013-05-27 21:57:00,51.2,46.5,29.48,ESE,107,6.9,6.9,84,0.00,CLR,,0.00,WeatherDisplay:10.37,2013-05-27 20:57:00,
2013-05-27 22:02:00,51.2,46.2,29.48,ESE,112,8.1,8.1,83,0.00,CLR,,0.00,WeatherDisplay:10.37,2013-05-27 21:02:00,
2013-05-27 22:07:00,51.2,46.2,29.48,East,95,7.0,7.0,83,0.00,CLR,,0.00,WeatherDisplay:10.37,2013-05-27 21:07:00,
2013-05-27 22:12:00,51.1,46.1,29.48,East,96,8.1,8.1,83,0.00,CLR,,0.00,WeatherDisplay:10.37,2013-05-27 21:12:00,
2013-05-27 22:17:00,51.1,46.1,29.48,ESE,103,4.6,4.6,83,0.00,CLR,,0.00,WeatherDisplay:10.37,2013-05-27 21:17:00,
2013-05-27 22:22:00,51.1,46.1,29.49,ESE,115,6.9,6.9,83,0.00,CLR,,0.00,WeatherDisplay:10.37,2013-05-27 21:22:00,
2013-05-27 22:27:00,51.0,46.0,29.49,NE,55,4.6,4.6,83,0.00,CLR,,0.00,WeatherDisplay:10.37,2013-05-27 21:27:00,
2013-05-27 22:32:00,51.0,46.0,29.49,East,85,7.0,7.0,83,0.00,CLR,,0.00,WeatherDisplay:10.37,2013-05-27 21:32:00,
2013-05-27 22:37:00,50.9,46.2,29.49,East,91,7.0,7.0,84,0.00,CLR,,0.00,WeatherDisplay:10.37,2013-05-27 21:37:00,
2013-05-27 22:42:00,51.0,46.0,29.49,ESE,110,8.1,8.1,83,0.00,CLR,,0.00,WeatherDisplay:10.37,2013-05-27 21:42:00,
2013-05-27 22:47:00,50.9,46.2,29.49,NE,47,6.9,6.9,84,0.00,CLR,,0.00,WeatherDisplay:10.37,2013-05-27 21:47:00,
2013-05-27 22:52:00,50.8,46.1,29.49,ENE,78,4.6,4.6,84,0.00,CLR,,0.00,WeatherDisplay:10.37,2013-05-27 21:52:00,
2013-05-27 22:57:00,50.8,46.1,29.49,ENE,63,5.8,5.8,84,0.00,CLR,,0.00,WeatherDisplay:10.37,2013-05-27 21:57:00,
2013-05-27 23:02:00,50.6,45.9,29.49,NE,53,9.2,9.2,84,0.00,CLR,,0.00,WeatherDisplay:10.37,2013-05-27 22:02:00,
2013-05-27 23:07:00,50.7,46.0,29.49,ENE,63,10.4,10.4,84,0.00,CLR,,0.00,WeatherDisplay:10.37,2013-05-27 22:07:00,
2013-05-27 23:12:00,50.8,45.8,29.50,ESE,103,15.0,15.0,83,0.00,CLR,,0.00,WeatherDisplay:10.37,2013-05-27 22:12:00,
2013-05-27 23:17:00,50.8,45.5,29.50,South,171,15.0,15.0,82,0.00,CLR,,0.00,WeatherDisplay:10.37,2013-05-27 22:17:00,
2013-05-27 23:22:00,50.9,45.6,29.50,East,98,10.4,10.4,82,0.00,CLR,,0.00,WeatherDisplay:10.37,2013-05-27 22:22:00,
2013-05-27 23:27:00,50.7,45.7,29.50,ESE,117,9.2,9.2,83,0.00,CLR,,0.00,WeatherDisplay:10.37,2013-05-27 22:27:00,
2013-05-27 23:32:00,50.6,45.6,29.50,East,96,5.8,5.8,83,0.00,CLR,,0.00,WeatherDisplay:10.37,2013-05-27 22:32:00,
2013-05-27 23:37:00,50.5,45.8,29.50,ENE,78,11.5,11.5,84,0.00,CLR,,0.00,WeatherDisplay:10.37,2013-05-27 22:37:00,
2013-05-27 23:42:00,50.4,45.7,29.50,East,96,11.5,11.5,84,0.00,CLR,,0.00,WeatherDisplay:10.37,2013-05-27 22:42:00,
2013-05-27 23:47:00,50.3,46.0,29.50,East,93,9.2,9.2,85,0.00,CLR,,0.00,WeatherDisplay:10.37,2013-05-27 22:47:00,
2013-05-27 23:52:00,50.1,46.1,29.50,ESE,102,10.4,10.4,86,0.00,CLR,,0.00,WeatherDisplay:10.37,2013-05-27 22:52:00,
2013-05-27 23:57:00,50.0,45.7,29.50,East,100,11.5,11.5,85,0.00,CLR,,0.00,WeatherDisplay:10.37,2013-05-27 22:57:00,